Hernandez Aguado — EA5493 — position and weather

sailwx.info

Track history (hours):
 
Tides and Currents Weather Stations Pressure Air Temp Water Temp Dewpoint Dewpoint Depression Visibility Wind Speed Wind Dir Waves Ship Positions

Hernandez Aguado

Last reported at 2018-Apr-19 12:18 UTC. Time now 2018-Apr-20 02:52 UTC.
Position N 37°31' W 000°58'.

Length 22 m; draft 2 m.

Type: Fishing. MMSI: 224064450.

Date/timePositionNaut miles runAvg speedWind from/ knotsBaromVisibWave heightAir tempDewpointWater temp
2018-Apr-19 12:18N 37°31' W 000°58'1 2.9
2018-Apr-19 11:49N 37°30' W 000°56'1 2.9
2018-Apr-19 11:19N 37°30' W 000°54'1 2.7
2018-Apr-19 10:57N 37°30' W 000°53'2 2.6
2018-Apr-19 10:13N 37°30' W 000°55'1 2.7
2018-Apr-19 10:00N 37°30' W 000°56'1 0.3
2018-Apr-19 04:54N 37°30' W 000°58'1 2.9
2018-Apr-19 04:23N 37°30' W 000°56'2 2.9
2018-Apr-19 03:45N 37°31' W 000°54'1 2.8
2018-Apr-19 03:28N 37°31' W 000°53'22 1.4
2018-Apr-18 11:58N 37°36' W 000°25'1 2.4
2018-Apr-18 11:21N 37°36' W 000°24'1 3.0
2018-Apr-18 10:51N 37°36' W 000°22'1 3.0
2018-Apr-18 10:30N 37°36' W 000°21'17 2.6
2018-Apr-18 03:57N 37°33' W 000°41'511.2
2018-Apr-18 03:30N 37°33' W 000°48'5 0.4
2018-Apr-17 15:37N 37°33' W 000°54'211.2
2018-Apr-17 15:26N 37°33' W 000°52'511.2
2018-Apr-17 15:01N 37°33' W 000°46'3 0.2
2018-Apr-17 03:54N 37°33' W 000°42'411.3
2018-Apr-17 03:30N 37°33' W 000°48'7 0.6
2018-Apr-16 15:44N 37°33' W 000°56'310.4
2018-Apr-16 15:27N 37°33' W 000°53'7 0.6
2018-Apr-16 03:48N 37°33' W 000°44'411.4
2018-Apr-16 03:30N 37°33' W 000°49'  
2018-Apr-10 09:23N 37°31' W 000°57'1 2.1
2018-Apr-10 08:43N 37°32' W 000°56'1 2.7
2018-Apr-10 08:30N 37°32' W 000°55'1 2.7
2018-Apr-10 07:59N 37°32' W 000°53'1 2.5
2018-Apr-10 07:31N 37°32' W 000°52'1 2.0
2018-Apr-10 06:49N 37°31' W 000°53'1 3.1
2018-Apr-10 06:21N 37°31' W 000°55'2 3.0
2018-Apr-10 05:40N 37°31' W 000°58'  
Track history (hours):
 
Tides and Currents Weather Stations Pressure Air Temp Water Temp Dewpoint Dewpoint Depression Visibility Wind Speed Wind Dir Waves Ship Positions

Hernandez Aguado

Last reported at 2018-Apr-19 12:18 UTC. Time now 2018-Apr-20 02:52 UTC.
Position N 37°31' W 000°58'.

Length 22 m; draft 2 m.

Type: Fishing. MMSI: 224064450.

Date/timePositionNaut miles runAvg speedWind from/ knotsBaromVisibWave heightAir tempDewpointWater temp
2018-Apr-19 12:18N 37°31' W 000°58'1 2.9
2018-Apr-19 11:49N 37°30' W 000°56'1 2.9
2018-Apr-19 11:19N 37°30' W 000°54'1 2.7
2018-Apr-19 10:57N 37°30' W 000°53'2 2.6
2018-Apr-19 10:13N 37°30' W 000°55'1 2.7
2018-Apr-19 10:00N 37°30' W 000°56'1 0.3
2018-Apr-19 04:54N 37°30' W 000°58'1 2.9
2018-Apr-19 04:23N 37°30' W 000°56'2 2.9
2018-Apr-19 03:45N 37°31' W 000°54'1 2.8
2018-Apr-19 03:28N 37°31' W 000°53'22 1.4
2018-Apr-18 11:58N 37°36' W 000°25'1 2.4
2018-Apr-18 11:21N 37°36' W 000°24'1 3.0
2018-Apr-18 10:51N 37°36' W 000°22'1 3.0
2018-Apr-18 10:30N 37°36' W 000°21'17 2.6
2018-Apr-18 03:57N 37°33' W 000°41'511.2
2018-Apr-18 03:30N 37°33' W 000°48'5 0.4
2018-Apr-17 15:37N 37°33' W 000°54'211.2
2018-Apr-17 15:26N 37°33' W 000°52'511.2
2018-Apr-17 15:01N 37°33' W 000°46'3 0.2
2018-Apr-17 03:54N 37°33' W 000°42'411.3
2018-Apr-17 03:30N 37°33' W 000°48'7 0.6
2018-Apr-16 15:44N 37°33' W 000°56'310.4
2018-Apr-16 15:27N 37°33' W 000°53'7 0.6
2018-Apr-16 03:48N 37°33' W 000°44'411.4
2018-Apr-16 03:30N 37°33' W 000°49'  
2018-Apr-10 09:23N 37°31' W 000°57'1 2.1
2018-Apr-10 08:43N 37°32' W 000°56'1 2.7
2018-Apr-10 08:30N 37°32' W 000°55'1 2.7
2018-Apr-10 07:59N 37°32' W 000°53'1 2.5
2018-Apr-10 07:31N 37°32' W 000°52'1 2.0
2018-Apr-10 06:49N 37°31' W 000°53'1 3.1
2018-Apr-10 06:21N 37°31' W 000°55'2 3.0
2018-Apr-10 05:40N 37°31' W 000°58'  

Dump ship's entire track history